sensor_id;sensor_type;location;lat;lon;timestamp;temperature;humidity
7455;HTU21D;3769;51.208;4.454;2024-03-23T00:54:09;8.4;97.5
7455;HTU21D;3769;51.208;4.454;2024-03-23T00:59:09;8.5;97.5
7455;HTU21D;3769;51.208;4.454;2024-03-23T01:04:09;8.2;97.5
7455;HTU21D;3769;51.208;4.454;2024-03-23T01:09:09;8.3;97.5
7455;HTU21D;3769;51.208;4.454;2024-03-23T01:14:09;8.3;97.5
7455;HTU21D;3769;51.208;4.454;2024-03-23T01:19:09;8.6;97.5
7455;HTU21D;3769;51.208;4.454;2024-03-23T01:24:09;8.6;97.5
7455;HTU21D;3769;51.208;4.454;2024-03-23T01:29:09;8.7;97.6
7455;HTU21D;3769;51.208;4.454;2024-03-23T01:34:09;8.7;97.6
7455;HTU21D;3769;51.208;4.454;2024-03-23T01:39:09;8.4;97.5
7455;HTU21D;3769;51.208;4.454;2024-03-23T01:44:09;8.7;97.6
7455;HTU21D;3769;51.208;4.454;2024-03-23T01:49:09;8.7;97.6
7455;HTU21D;3769;51.208;4.454;2024-03-23T01:54:09;8.5;97.5
7455;HTU21D;3769;51.208;4.454;2024-03-23T01:59:09;8.4;97.5
7455;HTU21D;3769;51.208;4.454;2024-03-23T02:04:09;8.3;97.5
7455;HTU21D;3769;51.208;4.454;2024-03-23T02:09:09;8.3;97.5
7455;HTU21D;3769;51.208;4.454;2024-03-23T02:14:09;8.4;97.5
7455;HTU21D;3769;51.208;4.454;2024-03-23T02:19:09;8.7;97.6
7455;HTU21D;3769;51.208;4.454;2024-03-23T02:24:09;9.1;97.6
7455;HTU21D;3769;51.208;4.454;2024-03-23T02:29:09;9.8;97.7
7455;HTU21D;3769;51.208;4.454;2024-03-23T02:34:09;9.5;97.7
7455;HTU21D;3769;51.208;4.454;2024-03-23T02:39:09;9.8;97.7
7455;HTU21D;3769;51.208;4.454;2024-03-23T02:44:09;10.4;97.8
7455;HTU21D;3769;51.208;4.454;2024-03-23T02:49:09;9.8;97.7
7455;HTU21D;3769;51.208;4.454;2024-03-23T02:54:09;9.9;97.7
7455;HTU21D;3769;51.208;4.454;2024-03-23T02:59:09;9.3;97.6
7455;HTU21D;3769;51.208;4.454;2024-03-23T03:04:09;9.4;97.7
7455;HTU21D;3769;51.208;4.454;2024-03-23T03:09:09;9.1;97.6
7455;HTU21D;3769;51.208;4.454;2024-03-23T03:14:09;8.7;97.6
7455;HTU21D;3769;51.208;4.454;2024-03-23T03:19:09;8.5;97.5
7455;HTU21D;3769;51.208;4.454;2024-03-23T03:24:09;8.3;97.5
7455;HTU21D;3769;51.208;4.454;2024-03-23T03:29:09;8.2;97.5
7455;HTU21D;3769;51.208;4.454;2024-03-23T03:34:09;8;97.4
7455;HTU21D;3769;51.208;4.454;2024-03-23T03:39:09;8.2;97.5
7455;HTU21D;3769;51.208;4.454;2024-03-23T03:44:09;8.1;97.5
7455;HTU21D;3769;51.208;4.454;2024-03-23T03:49:09;8.4;97.5
7455;HTU21D;3769;51.208;4.454;2024-03-23T03:54:09;8.3;97.5
7455;HTU21D;3769;51.208;4.454;2024-03-23T03:59:09;8.4;97.5
7455;HTU21D;3769;51.208;4.454;2024-03-23T04:04:09;7.9;97.4
7455;HTU21D;3769;51.208;4.454;2024-03-23T04:09:09;7.7;97.4
7455;HTU21D;3769;51.208;4.454;2024-03-23T04:14:09;7.7;97.4
7455;HTU21D;3769;51.208;4.454;2024-03-23T04:19:09;7.8;97.4
7455;HTU21D;3769;51.208;4.454;2024-03-23T04:24:09;7.9;97.4
7455;HTU21D;3769;51.208;4.454;2024-03-23T04:29:09;7.6;97.4
7455;HTU21D;3769;51.208;4.454;2024-03-23T04:34:09;7.8;97.4
7455;HTU21D;3769;51.208;4.454;2024-03-23T04:39:09;7.8;97.4
7455;HTU21D;3769;51.208;4.454;2024-03-23T04:44:09;7.7;97.4
7455;HTU21D;3769;51.208;4.454;2024-03-23T04:49:09;8;97.4
7455;HTU21D;3769;51.208;4.454;2024-03-23T04:54:09;7.6;97.4
7455;HTU21D;3769;51.208;4.454;2024-03-23T04:59:09;7.6;97.4
7455;HTU21D;3769;51.208;4.454;2024-03-23T05:04:09;7.4;97.4
7455;HTU21D;3769;51.208;4.454;2024-03-23T05:09:09;7.4;97.4
7455;HTU21D;3769;51.208;4.454;2024-03-23T05:14:10;7.4;97.4
7455;HTU21D;3769;51.208;4.454;2024-03-23T05:19:09;7.3;97.3
7455;HTU21D;3769;51.208;4.454;2024-03-23T05:24:09;7.1;97.3
7455;HTU21D;3769;51.208;4.454;2024-03-23T05:29:09;7.1;97.3
7455;HTU21D;3769;51.208;4.454;2024-03-23T05:34:09;7.1;97.3
7455;HTU21D;3769;51.208;4.454;2024-03-23T05:39:09;7.1;97.3
7455;HTU21D;3769;51.208;4.454;2024-03-23T05:44:09;7.3;97.3
7455;HTU21D;3769;51.208;4.454;2024-03-23T05:49:09;7.3;97.3
7455;HTU21D;3769;51.208;4.454;2024-03-23T05:54:09;7.3;97.3
7455;HTU21D;3769;51.208;4.454;2024-03-23T05:59:09;7.3;97.3
7455;HTU21D;3769;51.208;4.454;2024-03-23T06:04:09;7.3;97.3
7455;HTU21D;3769;51.208;4.454;2024-03-23T06:09:09;7.4;97.4
7455;HTU21D;3769;51.208;4.454;2024-03-23T06:14:09;7.3;97.4
7455;HTU21D;3769;51.208;4.454;2024-03-23T06:19:09;7.4;97.4
7455;HTU21D;3769;51.208;4.454;2024-03-23T06:24:10;7.3;97.4
7455;HTU21D;3769;51.208;4.454;2024-03-23T06:29:09;7.4;97.4
7455;HTU21D;3769;51.208;4.454;2024-03-23T06:34:09;7.2;97.3
7455;HTU21D;3769;51.208;4.454;2024-03-23T06:39:09;7.3;97.3
7455;HTU21D;3769;51.208;4.454;2024-03-23T06:44:09;7.3;97.3
7455;HTU21D;3769;51.208;4.454;2024-03-23T06:49:09;7.3;97.3
7455;HTU21D;3769;51.208;4.454;2024-03-23T06:54:09;7.3;97.3
7455;HTU21D;3769;51.208;4.454;2024-03-23T06:59:09;7.5;97.4
7455;HTU21D;3769;51.208;4.454;2024-03-23T07:04:09;7.4;97.4
7455;HTU21D;3769;51.208;4.454;2024-03-23T07:09:09;7.5;97.4
7455;HTU21D;3769;51.208;4.454;2024-03-23T07:14:09;7.6;97.4
7455;HTU21D;3769;51.208;4.454;2024-03-23T07:19:09;7.6;97.4
7455;HTU21D;3769;51.208;4.454;2024-03-23T07:24:10;7.6;97.4
7455;HTU21D;3769;51.208;4.454;2024-03-23T07:29:09;7.7;97.4
7455;HTU21D;3769;51.208;4.454;2024-03-23T07:34:09;7.8;97.4
7455;HTU21D;3769;51.208;4.454;2024-03-23T07:39:09;7.7;97.4
7455;HTU21D;3769;51.208;4.454;2024-03-23T07:44:09;7.8;97.4
7455;HTU21D;3769;51.208;4.454;2024-03-23T07:49:09;7.9;97.4
7455;HTU21D;3769;51.208;4.454;2024-03-23T07:54:09;8.4;97.5
7455;HTU21D;3769;51.208;4.454;2024-03-23T07:59:09;8.4;97.5
7455;HTU21D;3769;51.208;4.454;2024-03-23T08:04:09;8.2;97.5
7455;HTU21D;3769;51.208;4.454;2024-03-23T08:09:09;7.6;97.4
7455;HTU21D;3769;51.208;4.454;2024-03-23T08:14:09;7.3;97.3
7455;HTU21D;3769;51.208;4.454;2024-03-23T08:19:09;7.3;97.3
7455;HTU21D;3769;51.208;4.454;2024-03-23T08:24:09;7.3;97.3
7455;HTU21D;3769;51.208;4.454;2024-03-23T08:29:09;7.4;97.4
7455;HTU21D;3769;51.208;4.454;2024-03-23T08:34:09;7.7;97.4
7455;HTU21D;3769;51.208;4.454;2024-03-23T08:39:09;8.1;97.5
7455;HTU21D;3769;51.208;4.454;2024-03-23T08:44:09;8.3;97.5
7455;HTU21D;3769;51.208;4.454;2024-03-23T08:49:09;8;97.5
7455;HTU21D;3769;51.208;4.454;2024-03-23T08:54:09;7.9;97.4
7455;HTU21D;3769;51.208;4.454;2024-03-23T08:59:09;8;97.4
7455;HTU21D;3769;51.208;4.454;2024-03-23T09:04:09;8.2;97.5
7455;HTU21D;3769;51.208;4.454;2024-03-23T09:09:09;8.1;97.5
7455;HTU21D;3769;51.208;4.454;2024-03-23T09:14:09;8.2;97.5
7455;HTU21D;3769;51.208;4.454;2024-03-23T09:19:09;8.3;97.5
7455;HTU21D;3769;51.208;4.454;2024-03-23T09:24:10;8.3;90.5
7455;HTU21D;3769;51.208;4.454;2024-03-23T09:29:09;8.6;92
7455;HTU21D;3769;51.208;4.454;2024-03-23T09:34:09;8.8;95.8
7455;HTU21D;3769;51.208;4.454;2024-03-23T09:39:09;8.8;96
7455;HTU21D;3769;51.208;4.454;2024-03-23T09:44:09;8.3;92.8
7455;HTU21D;3769;51.208;4.454;2024-03-23T09:49:09;8.4;95.6
7455;HTU21D;3769;51.208;4.454;2024-03-23T09:54:10;8.2;97.5
7455;HTU21D;3769;51.208;4.454;2024-03-23T09:59:09;8.2;97.5
7455;HTU21D;3769;51.208;4.454;2024-03-23T10:04:09;8.1;97.5
7455;HTU21D;3769;51.208;4.454;2024-03-23T10:09:16;8.3;97.5
7455;HTU21D;3769;51.208;4.454;2024-03-23T10:14:09;8.1;97.5
7455;HTU21D;3769;51.208;4.454;2024-03-23T10:19:10;8.2;97.5
7455;HTU21D;3769;51.208;4.454;2024-03-23T10:24:09;8.7;97.6
7455;HTU21D;3769;51.208;4.454;2024-03-23T10:29:09;8.6;90.1
7455;HTU21D;3769;51.208;4.454;2024-03-23T10:34:12;8;86.2
7455;HTU21D;3769;51.208;4.454;2024-03-23T10:39:09;7.4;97.4
7455;HTU21D;3769;51.208;4.454;2024-03-23T10:44:09;7.2;97.3
7455;HTU21D;3769;51.208;4.454;2024-03-23T10:49:09;7.1;97.3
7455;HTU21D;3769;51.208;4.454;2024-03-23T10:54:09;7.3;97.3
7455;HTU21D;3769;51.208;4.454;2024-03-23T10:59:09;7.5;95.9
7455;HTU21D;3769;51.208;4.454;2024-03-23T11:04:09;7.8;97.4
7455;HTU21D;3769;51.208;4.454;2024-03-23T11:09:41;8.1;97.5
7455;HTU21D;3769;51.208;4.454;2024-03-23T11:14:13;8.7;94.7
7455;HTU21D;3769;51.208;4.454;2024-03-23T11:19:41;9.2;88
7455;HTU21D;3769;51.208;4.454;2024-03-23T11:24:13;9.6;90
7455;HTU21D;3769;51.208;4.454;2024-03-23T11:29:10;9.5;83
7455;HTU21D;3769;51.208;4.454;2024-03-23T11:34:09;9.1;77.4
7455;HTU21D;3769;51.208;4.454;2024-03-23T11:39:25;9.1;74.2
7455;HTU21D;3769;51.208;4.454;2024-03-23T11:44:18;9.5;72.5
7455;HTU21D;3769;51.208;4.454;2024-03-23T11:49:26;9.2;78.1
7455;HTU21D;3769;51.208;4.454;2024-03-23T11:54:09;8.7;97.6
7455;HTU21D;3769;51.208;4.454;2024-03-23T11:59:09;8.2;97.5
7455;HTU21D;3769;51.208;4.454;2024-03-23T12:04:09;7.7;97.4
7455;HTU21D;3769;51.208;4.454;2024-03-23T12:09:09;7.7;97.4
7455;HTU21D;3769;51.208;4.454;2024-03-23T12:14:10;8.2;97.5
7455;HTU21D;3769;51.208;4.454;2024-03-23T12:19:09;8.6;97.5
7455;HTU21D;3769;51.208;4.454;2024-03-23T12:24:09;8.4;95.8
7455;HTU21D;3769;51.208;4.454;2024-03-23T12:29:09;8.5;97.5
7455;HTU21D;3769;51.208;4.454;2024-03-23T12:34:09;8.7;97.6
7455;HTU21D;3769;51.208;4.454;2024-03-23T12:39:09;8.8;92.4
7455;HTU21D;3769;51.208;4.454;2024-03-23T12:44:10;9.1;84.8
7455;HTU21D;3769;51.208;4.454;2024-03-23T12:49:10;9.7;84.4
7455;HTU21D;3769;51.208;4.454;2024-03-23T12:54:09;10.6;78.2
7455;HTU21D;3769;51.208;4.454;2024-03-23T12:59:09;11.6;66.5
7455;HTU21D;3769;51.208;4.454;2024-03-23T13:04:09;10.1;74.5
7455;HTU21D;3769;51.208;4.454;2024-03-23T13:09:09;9;86.3
7455;HTU21D;3769;51.208;4.454;2024-03-23T13:14:09;8.6;95.2
7455;HTU21D;3769;51.208;4.454;2024-03-23T13:19:09;8.3;97.5
7455;HTU21D;3769;51.208;4.454;2024-03-23T13:24:09;8;97.5
7455;HTU21D;3769;51.208;4.454;2024-03-23T13:29:09;7.6;97.4
7455;HTU21D;3769;51.208;4.454;2024-03-23T13:34:09;6.8;97.3
7455;HTU21D;3769;51.208;4.454;2024-03-23T13:39:10;6.6;97.2
7455;HTU21D;3769;51.208;4.454;2024-03-23T13:44:10;6.4;97.2
7455;HTU21D;3769;51.208;4.454;2024-03-23T13:49:14;6.8;97.3
7455;HTU21D;3769;51.208;4.454;2024-03-23T13:54:09;7.7;97.4
7455;HTU21D;3769;51.208;4.454;2024-03-23T13:59:09;7.8;97.4
7455;HTU21D;3769;51.208;4.454;2024-03-23T14:04:09;7.9;97.4
7455;HTU21D;3769;51.208;4.454;2024-03-23T14:09:09;10.5;80.2
7455;HTU21D;3769;51.208;4.454;2024-03-23T14:14:09;10.5;74.1
7455;HTU21D;3769;51.208;4.454;2024-03-23T14:19:09;11.3;71
7455;HTU21D;3769;51.208;4.454;2024-03-23T14:24:09;12;66
7455;HTU21D;3769;51.208;4.454;2024-03-23T14:29:09;12.9;61.6
7455;HTU21D;3769;51.208;4.454;2024-03-23T14:34:09;13;60.2
7455;HTU21D;3769;51.208;4.454;2024-03-23T14:39:09;12.2;58.5
7455;HTU21D;3769;51.208;4.454;2024-03-23T14:44:09;10.9;65.4
7455;HTU21D;3769;51.208;4.454;2024-03-23T14:49:14;10;71.7
7455;HTU21D;3769;51.208;4.454;2024-03-23T14:54:09;9.7;75.1
7455;HTU21D;3769;51.208;4.454;2024-03-23T14:59:09;10.9;73.7
7455;HTU21D;3769;51.208;4.454;2024-03-23T15:04:09;9.7;74.3
7455;HTU21D;3769;51.208;4.454;2024-03-23T15:09:09;9.4;73.4
7455;HTU21D;3769;51.208;4.454;2024-03-23T15:14:09;10.5;68.6
7455;HTU21D;3769;51.208;4.454;2024-03-23T15:19:10;12.2;60.5
7455;HTU21D;3769;51.208;4.454;2024-03-23T15:24:09;13.8;54.8
7455;HTU21D;3769;51.208;4.454;2024-03-23T15:29:09;14.3;50.9
7455;HTU21D;3769;51.208;4.454;2024-03-23T15:34:09;15;50
7455;HTU21D;3769;51.208;4.454;2024-03-23T15:39:09;12.9;53.7
7455;HTU21D;3769;51.208;4.454;2024-03-23T15:44:09;11.9;63.8
7455;HTU21D;3769;51.208;4.454;2024-03-23T15:49:09;11.2;64.8
7455;HTU21D;3769;51.208;4.454;2024-03-23T15:54:10;12.1;64.5
7455;HTU21D;3769;51.208;4.454;2024-03-23T15:59:09;11.4;64.4
7455;HTU21D;3769;51.208;4.454;2024-03-23T16:04:09;10.6;67.8
7455;HTU21D;3769;51.208;4.454;2024-03-23T16:09:09;10.5;68.9
7455;HTU21D;3769;51.208;4.454;2024-03-23T16:14:09;10.1;68.8
7455;HTU21D;3769;51.208;4.454;2024-03-23T16:19:10;9.9;68.6
7455;HTU21D;3769;51.208;4.454;2024-03-23T16:24:09;9.6;69.6
7455;HTU21D;3769;51.208;4.454;2024-03-23T16:29:09;9.6;70
7455;HTU21D;3769;51.208;4.454;2024-03-23T16:34:10;9.7;70.9
7455;HTU21D;3769;51.208;4.454;2024-03-23T16:39:10;9.6;72.1
7455;HTU21D;3769;51.208;4.454;2024-03-23T16:44:09;9.6;71.9
7455;HTU21D;3769;51.208;4.454;2024-03-23T16:49:09;9.6;72.3
7455;HTU21D;3769;51.208;4.454;2024-03-23T16:54:10;9.4;72.3
7455;HTU21D;3769;51.208;4.454;2024-03-23T16:59:09;9.1;73
7455;HTU21D;3769;51.208;4.454;2024-03-23T17:04:09;8.9;74.6
7455;HTU21D;3769;51.208;4.454;2024-03-23T17:09:09;8.8;77.6
7455;HTU21D;3769;51.208;4.454;2024-03-23T17:14:09;8.7;77.9
7455;HTU21D;3769;51.208;4.454;2024-03-23T17:19:09;8.6;79.1
7455;HTU21D;3769;51.208;4.454;2024-03-23T17:24:10;8.6;80
7455;HTU21D;3769;51.208;4.454;2024-03-23T17:29:09;8.4;79.5
7455;HTU21D;3769;51.208;4.454;2024-03-23T17:34:10;8.3;79.8
7455;HTU21D;3769;51.208;4.454;2024-03-23T17:39:09;8.4;82.3
7455;HTU21D;3769;51.208;4.454;2024-03-23T17:44:10;8.4;83.8
7455;HTU21D;3769;51.208;4.454;2024-03-23T17:49:09;8.1;87.1
7455;HTU21D;3769;51.208;4.454;2024-03-23T17:54:10;8.1;91.7
7455;HTU21D;3769;51.208;4.454;2024-03-23T17:59:09;8.2;91.9
7455;HTU21D;3769;51.208;4.454;2024-03-23T18:04:09;7.9;97.3
7455;HTU21D;3769;51.208;4.454;2024-03-23T18:09:10;7.8;97
7455;HTU21D;3769;51.208;4.454;2024-03-23T18:14:09;8;91.6
7455;HTU21D;3769;51.208;4.454;2024-03-23T18:19:09;8.1;93.9
7455;HTU21D;3769;51.208;4.454;2024-03-23T18:24:09;7.8;97.4
7455;HTU21D;3769;51.208;4.454;2024-03-23T18:29:09;7.8;97.4
7455;HTU21D;3769;51.208;4.454;2024-03-23T18:34:10;7.7;97.4
7455;HTU21D;3769;51.208;4.454;2024-03-23T18:39:09;7.8;97.4
7455;HTU21D;3769;51.208;4.454;2024-03-23T18:44:09;7.9;97.4
7455;HTU21D;3769;51.208;4.454;2024-03-23T18:49:10;7.5;97.4
7455;HTU21D;3769;51.208;4.454;2024-03-23T18:54:09;7.6;97.4
7455;HTU21D;3769;51.208;4.454;2024-03-23T18:59:09;7.7;97.4
7455;HTU21D;3769;51.208;4.454;2024-03-23T19:04:09;7.5;97.4
7455;HTU21D;3769;51.208;4.454;2024-03-23T19:09:09;7.3;97.3
7455;HTU21D;3769;51.208;4.454;2024-03-23T19:14:09;7.4;97.4
7455;HTU21D;3769;51.208;4.454;2024-03-23T19:19:09;7.6;97.4
7455;HTU21D;3769;51.208;4.454;2024-03-23T19:24:09;7.4;97.4
7455;HTU21D;3769;51.208;4.454;2024-03-23T19:29:09;7.3;97.3
7455;HTU21D;3769;51.208;4.454;2024-03-23T19:34:10;7.4;97.4
7455;HTU21D;3769;51.208;4.454;2024-03-23T19:39:09;7.4;97.4
7455;HTU21D;3769;51.208;4.454;2024-03-23T19:44:10;7;97.3
7455;HTU21D;3769;51.208;4.454;2024-03-23T19:49:10;6.8;97.3
7455;HTU21D;3769;51.208;4.454;2024-03-23T19:54:10;6.8;97.3
7455;HTU21D;3769;51.208;4.454;2024-03-23T19:59:10;6.8;97.3
7455;HTU21D;3769;51.208;4.454;2024-03-23T20:04:10;6.9;97.3
7455;HTU21D;3769;51.208;4.454;2024-03-23T20:09:09;7;97.3
7455;HTU21D;3769;51.208;4.454;2024-03-23T20:14:10;6.7;97.3
7455;HTU21D;3769;51.208;4.454;2024-03-23T20:19:09;6.7;97.3
7455;HTU21D;3769;51.208;4.454;2024-03-23T20:24:10;6.8;97.3
7455;HTU21D;3769;51.208;4.454;2024-03-23T20:29:10;7;97.3
7455;HTU21D;3769;51.208;4.454;2024-03-23T20:34:10;6.7;97.3
7455;HTU21D;3769;51.208;4.454;2024-03-23T20:39:09;6.7;97.2
7455;HTU21D;3769;51.208;4.454;2024-03-23T20:44:10;6.9;97.3
7455;HTU21D;3769;51.208;4.454;2024-03-23T20:49:09;6.9;97.3
7455;HTU21D;3769;51.208;4.454;2024-03-23T20:54:10;6.8;97.3
7455;HTU21D;3769;51.208;4.454;2024-03-23T20:59:10;6.8;97.3
7455;HTU21D;3769;51.208;4.454;2024-03-23T21:04:10;6.5;97.2
7455;HTU21D;3769;51.208;4.454;2024-03-23T21:09:10;6.9;97.3
7455;HTU21D;3769;51.208;4.454;2024-03-23T21:14:09;6.9;97.3
7455;HTU21D;3769;51.208;4.454;2024-03-23T21:19:10;7.1;97.3
7455;HTU21D;3769;51.208;4.454;2024-03-23T21:24:09;7.2;97.3
7455;HTU21D;3769;51.208;4.454;2024-03-23T21:29:10;7.1;97.3
7455;HTU21D;3769;51.208;4.454;2024-03-23T21:34:09;6.8;97.3
7455;HTU21D;3769;51.208;4.454;2024-03-23T21:39:10;6.6;97.2
7455;HTU21D;3769;51.208;4.454;2024-03-23T21:44:10;6.4;97.2
7455;HTU21D;3769;51.208;4.454;2024-03-23T21:49:09;6.3;97.2
7455;HTU21D;3769;51.208;4.454;2024-03-23T21:54:09;6.4;97.2
7455;HTU21D;3769;51.208;4.454;2024-03-23T21:59:10;6.3;97.2
7455;HTU21D;3769;51.208;4.454;2024-03-23T22:04:10;6.1;97.2
7455;HTU21D;3769;51.208;4.454;2024-03-23T22:09:10;6.1;97.2
7455;HTU21D;3769;51.208;4.454;2024-03-23T22:14:09;6;97.2
7455;HTU21D;3769;51.208;4.454;2024-03-23T22:19:10;6.3;97.2
7455;HTU21D;3769;51.208;4.454;2024-03-23T22:24:10;6.4;97.2
7455;HTU21D;3769;51.208;4.454;2024-03-23T22:29:10;6.2;97.2
7455;HTU21D;3769;51.208;4.454;2024-03-23T22:34:10;6.5;97.2
7455;HTU21D;3769;51.208;4.454;2024-03-23T22:39:10;6.1;97.2
7455;HTU21D;3769;51.208;4.454;2024-03-23T22:44:10;6.4;97.2
7455;HTU21D;3769;51.208;4.454;2024-03-23T22:49:10;6.4;97.2
7455;HTU21D;3769;51.208;4.454;2024-03-23T22:54:10;6.3;97.2
7455;HTU21D;3769;51.208;4.454;2024-03-23T22:59:10;6.3;97.2
7455;HTU21D;3769;51.208;4.454;2024-03-23T23:04:10;6.3;97.2
7455;HTU21D;3769;51.208;4.454;2024-03-23T23:09:10;6.2;97.2
7455;HTU21D;3769;51.208;4.454;2024-03-23T23:14:10;6.2;97.2
7455;HTU21D;3769;51.208;4.454;2024-03-23T23:19:10;6.2;97.2
7455;HTU21D;3769;51.208;4.454;2024-03-23T23:24:10;6.1;97.2
7455;HTU21D;3769;51.208;4.454;2024-03-23T23:29:10;6;97.2
7455;HTU21D;3769;51.208;4.454;2024-03-23T23:34:10;6.3;97.2
7455;HTU21D;3769;51.208;4.454;2024-03-23T23:39:10;6.1;97.2
7455;HTU21D;3769;51.208;4.454;2024-03-23T23:44:10;6.2;97.2
7455;HTU21D;3769;51.208;4.454;2024-03-23T23:49:10;6.2;97.2
7455;HTU21D;3769;51.208;4.454;2024-03-23T23:54:10;6.4;97.2
7455;HTU21D;3769;51.208;4.454;2024-03-23T23:59:09;6.4;97.2
